Tasman Sea — WDB5559 — position and weather

sailwx.info

Track history (hours):
 
Tides and Currents Weather Stations Pressure Air Temp Water Temp Dewpoint Dewpoint Depression Visibility Wind Speed Wind Dir Waves Ship Positions

Tasman Sea

More information available from US FCC via Universal Licensing System and Coast Guard Vessel Documentation Center.

Last reported at 2014-Sep-18 02:33 UTC. Time now 2014-Sep-18 09:36 UTC.
Position N 41°41' W 070°41'.

Length 38 m; draft 5 m.

Type: Tug. MMSI: 366910960.

Date/timePositionNaut miles runAvg speedWind from/ knotsBaromVisibWave heightAir tempDewpointWater temp
2014-Sep-18 02:33N 41°41' W 070°41'18 2.2
2014-Sep-17 18:25N 41°28' W 070°57'6 7.3
2014-Sep-17 17:33N 41°24' W 071°03'7 7.1
2014-Sep-17 16:31N 41°18' W 071°09'7 7.1
2014-Sep-17 15:33N 41°13' W 071°15'7 6.7
2014-Sep-17 14:33N 41°09' W 071°22'7 6.7
2014-Sep-17 13:33N 41°06' W 071°30'7 6.8
2014-Sep-17 12:33N 41°04' W 071°38'7 6.8
2014-Sep-17 11:33N 41°01' W 071°47'7 6.5
2014-Sep-17 10:33N 40°59' W 071°55'7 6.9
2014-Sep-17 09:33N 40°56' W 072°03'7 6.9
2014-Sep-17 08:33N 40°54' W 072°11'7 7.1
2014-Sep-17 07:33N 40°51' W 072°20'7 7.1
2014-Sep-17 06:33N 40°48' W 072°29'7 7.1
2014-Sep-17 05:33N 40°45' W 072°37'7 7.1
2014-Sep-17 04:33N 40°43' W 072°46'68 3.9
2014-Sep-16 11:09N 40°32' W 074°15'0 0.0
2014-Sep-16 10:21N 40°32' W 074°15'0 0.0
2014-Sep-16 09:23N 40°32' W 074°15'0 0.0
2014-Sep-16 07:23N 40°32' W 074°15'0 0.0
2014-Sep-16 06:29N 40°32' W 074°15'0 0.0
2014-Sep-16 05:16N 40°32' W 074°15'0 0.0
2014-Sep-16 04:31N 40°32' W 074°15'0 0.0
2014-Sep-16 03:12N 40°32' W 074°15'0 0.2
2014-Sep-16 02:13N 40°33' W 074°15'0 0.0
2014-Sep-16 01:32N 40°33' W 074°15'1 0.2
2014-Sep-15 20:30N 40°33' W 074°14'4 1.0
2014-Sep-15 16:33N 40°37' W 074°12'5 2.2
2014-Sep-15 14:18N 40°33' W 074°15'0 0.1
2014-Sep-15 13:31N 40°33' W 074°15'7 6.7
2014-Sep-15 12:32N 40°39' W 074°11'7 6.9
2014-Sep-15 11:32N 40°40' W 074°03'0 0.1
2014-Sep-15 10:33N 40°40' W 074°03'0 0.0
2014-Sep-15 09:33N 40°40' W 074°03'0 0.0
2014-Sep-15 08:32N 40°40' W 074°03'0 0.1
2014-Sep-15 07:33N 40°40' W 074°02'0 0.1
2014-Sep-15 06:33N 40°40' W 074°02'0 0.1
2014-Sep-15 05:33N 40°40' W 074°02'0 0.0
2014-Sep-15 04:33N 40°40' W 074°02'0 0.0
2014-Sep-15 03:33N 40°40' W 074°02'0 0.1
2014-Sep-15 02:32N 40°40' W 074°02'0 0.1
2014-Sep-15 01:33N 40°40' W 074°03'0 0.0
2014-Sep-15 00:33N 40°40' W 074°02'0 0.0
2014-Sep-14 23:28N 40°40' W 074°03'0 0.0
2014-Sep-14 22:30N 40°40' W 074°03'1 1.0
2014-Sep-14 21:33N 40°39' W 074°03'5 2.5
2014-Sep-14 19:29N 40°39' W 074°10'0 0.0
2014-Sep-14 18:24N 40°39' W 074°10'0 0.0
2014-Sep-14 17:26N 40°39' W 074°10'1 1.0
2014-Sep-14 16:30N 40°38' W 074°09'5 4.9
2014-Sep-14 15:28N 40°40' W 074°02'4 1.1
2014-Sep-14 11:28N 40°39' W 074°08'4 4.6
2014-Sep-14 10:33N 40°40' W 074°03'0 0.0
2014-Sep-14 09:31N 40°40' W 074°03'0 0.0
2014-Sep-14 08:33N 40°40' W 074°03'0 0.0
2014-Sep-14 07:33N 40°40' W 074°03'0 0.1
2014-Sep-14 06:33N 40°40' W 074°02'0 0.1
2014-Sep-14 05:33N 40°40' W 074°02'0 0.1
2014-Sep-14 04:33N 40°40' W 074°02'2 2.1
2014-Sep-14 03:33N 40°38' W 074°03'9 9.1
2014-Sep-14 02:32N 40°30' W 073°57'10 9.4
2014-Sep-14 01:27N 40°29' W 073°43'37 9.4
2014-Sep-13 21:33N 40°40' W 072°57'9 9.1
2014-Sep-13 20:33N 40°43' W 072°46'9 9.1
2014-Sep-13 19:33N 40°46' W 072°35'9 9.1
2014-Sep-13 18:33N 40°50' W 072°24'9 9.2
2014-Sep-13 17:33N 40°53' W 072°12'9 9.2
2014-Sep-13 16:33N 40°56' W 072°01'9 9.3
2014-Sep-13 15:33N 40°60' W 071°50'10 9.8
2014-Sep-13 14:33N 41°04' W 071°38'10 9.5
2014-Sep-13 13:33N 41°09' W 071°27'9 8.9
2014-Sep-13 12:33N 41°18' W 071°25'9 9.2
2014-Sep-13 11:33N 41°27' W 071°23'9 8.7
2014-Sep-13 10:33N 41°35' W 071°19'8 8.5
2014-Sep-13 09:33N 41°43' W 071°21'4 3.8
2014-Sep-13 08:33N 41°47' W 071°22'0 0.0
2014-Sep-13 07:33N 41°47' W 071°22'0 0.0
2014-Sep-13 06:33N 41°47' W 071°22'0 0.0
2014-Sep-13 05:33N 41°47' W 071°22'0 0.0
2014-Sep-13 01:20N 41°47' W 071°22'0 0.0
2014-Sep-13 00:33N 41°47' W 071°22'2 1.6
2014-Sep-12 23:33N 41°48' W 071°24'0 0.0
2014-Sep-12 19:33N 41°48' W 071°24'0 0.0
2014-Sep-12 16:18N 41°48' W 071°24'0 0.0
2014-Sep-12 15:33N 41°48' W 071°24'0 0.0
2014-Sep-12 14:33N 41°48' W 071°24'0 0.0
2014-Sep-12 13:33N 41°48' W 071°24'1 1.0
2014-Sep-12 12:28N 41°47' W 071°23'8 8.5
2014-Sep-12 11:33N 41°40' W 071°19'9 8.9
2014-Sep-12 10:33N 41°31' W 071°20'6 6.3
2014-Sep-12 09:33N 41°25' W 071°19'9 9.2
2014-Sep-12 08:33N 41°25' W 071°07'10 9.2
2014-Sep-12 07:29N 41°29' W 070°55'9 9.6
2014-Sep-12 06:33N 41°34' W 070°45'11 9.7
2014-Sep-12 05:28N 41°43' W 070°39'9 8.9
2014-Sep-12 04:27N 41°48' W 070°28'8 8.7
2014-Sep-12 03:33N 41°55' W 070°30'10 9.4
2014-Sep-12 02:27N 42°05' W 070°34'8 9.3
2014-Sep-12 01:33N 42°13' W 070°39'9 9.0
2014-Sep-12 00:33N 42°20' W 070°46'11 1.4
2014-Sep-11 16:31N 42°24' W 071°01'0 0.0
2014-Sep-11 15:33N 42°24' W 071°01'0 0.0
2014-Sep-11 14:33N 42°24' W 071°01'0 0.0
2014-Sep-11 13:30N 42°24' W 071°01'0 0.0
2014-Sep-11 12:10N 42°24' W 071°01'0 0.0
2014-Sep-11 11:33N 42°24' W 071°01'0 0.0
2014-Sep-11 10:33N 42°24' W 071°01'0 0.0
2014-Sep-11 09:33N 42°24' W 071°01'0 0.0
2014-Sep-11 08:33N 42°24' W 071°01'0 0.0
2014-Sep-11 07:32N 42°24' W 071°01'0 0.0
2014-Sep-11 06:33N 42°24' W 071°01'0 0.0
2014-Sep-11 05:32N 42°24' W 071°01'0 0.0
2014-Sep-11 04:33N 42°24' W 071°01'0 0.0
2014-Sep-11 03:33N 42°24' W 071°01'0 0.0
2014-Sep-11 02:33N 42°24' W 071°01'0 0.0
2014-Sep-11 01:32N 42°24' W 071°01'0 0.0
2014-Sep-11 00:33N 42°24' W 071°01'0 0.0
2014-Sep-10 23:33N 42°24' W 071°01'0 0.0
2014-Sep-10 22:32N 42°24' W 071°01'0 0.0
2014-Sep-10 21:30N 42°24' W 071°01'0 0.0
2014-Sep-10 20:10N 42°24' W 071°01'0 0.0
2014-Sep-10 19:33N 42°24' W 071°01'0 0.0
2014-Sep-10 18:33N 42°24' W 071°01'0 0.0
2014-Sep-10 17:33N 42°24' W 071°01'0 0.0
2014-Sep-10 16:31N 42°24' W 071°01'2 2.0
2014-Sep-10 15:30N 42°23' W 071°03'0 0.1
2014-Sep-10 13:33N 42°23' W 071°03'0 0.0
2014-Sep-10 12:32N 42°23' W 071°03'0 0.0
2014-Sep-10 08:33N 42°23' W 071°03'0 0.0
2014-Sep-10 07:33N 42°23' W 071°03'0 0.0
2014-Sep-10 06:33N 42°23' W 071°03'0 0.0
2014-Sep-10 05:31N 42°23' W 071°03'1 0.5
2014-Sep-10 03:24N 42°22' W 071°03'5 5.0
2014-Sep-10 02:30N 42°20' W 070°58'39 7.3
2014-Sep-09 21:08N 41°48' W 070°28'6 8.0
2014-Sep-09 20:25N 41°45' W 070°35'14 7.2
2014-Sep-09 18:31N 41°34' W 070°45'8 7.9
2014-Sep-09 17:33N 41°29' W 070°53'7 6.9
2014-Sep-09 16:32N 41°26' W 071°02'7 7.1
2014-Sep-09 15:33N 41°25' W 071°11'8 7.7
2014-Sep-09 14:33N 41°24' W 071°21'7 7.4
2014-Sep-09 13:33N 41°32' W 071°20'8 8.3
2014-Sep-09 12:33N 41°40' W 071°19'7 7.4
2014-Sep-09 11:33N 41°47' W 071°22'0 0.1
2014-Sep-09 10:33N 41°47' W 071°22'0 0.0
2014-Sep-09 09:33N 41°47' W 071°22'0 0.0
2014-Sep-09 08:33N 41°47' W 071°22'0 0.0
2014-Sep-09 07:33N 41°47' W 071°22'0 0.0
2014-Sep-09 06:33N 41°47' W 071°22'0 0.0
2014-Sep-09 05:33N 41°47' W 071°22'0 0.0
2014-Sep-09 04:33N 41°47' W 071°22'0 0.0
2014-Sep-09 03:33N 41°47' W 071°22'0 0.0
2014-Sep-09 02:33N 41°47' W 071°22'0 0.0
2014-Sep-09 01:33N 41°47' W 071°22'0 0.0
2014-Sep-09 00:33N 41°47' W 071°22'2 2.1
2014-Sep-08 23:33N 41°45' W 071°22'7 7.4
2014-Sep-08 22:33N 41°38' W 071°18'8 8.3
2014-Sep-08 21:32N 41°30' W 071°21'8 7.9
2014-Sep-08 20:33N 41°23' W 071°25'7 6.5
2014-Sep-08 19:33N 41°18' W 071°31'8 7.8
2014-Sep-08 18:33N 41°17' W 071°41'8 8.2
2014-Sep-08 17:33N 41°15' W 071°52'9 8.7
2014-Sep-08 16:33N 41°14' W 072°03'8 8.2
2014-Sep-08 15:33N 41°12' W 072°14'7 7.2
2014-Sep-08 14:33N 41°11' W 072°23'6 6.3
2014-Sep-08 13:33N 41°10' W 072°31'6 6.3
2014-Sep-08 12:33N 41°11' W 072°39'6 6.3
2014-Sep-08 11:33N 41°11' W 072°48'  
Track history (hours):
 
Tides and Currents Weather Stations Pressure Air Temp Water Temp Dewpoint Dewpoint Depression Visibility Wind Speed Wind Dir Waves Ship Positions

Tasman Sea

More information available from US FCC via Universal Licensing System and Coast Guard Vessel Documentation Center.

Last reported at 2014-Sep-18 02:33 UTC. Time now 2014-Sep-18 09:36 UTC.
Position N 41°41' W 070°41'.

Length 38 m; draft 5 m.

Type: Tug. MMSI: 366910960.

Date/timePositionNaut miles runAvg speedWind from/ knotsBaromVisibWave heightAir tempDewpointWater temp
2014-Sep-18 02:33N 41°41' W 070°41'18 2.2
2014-Sep-17 18:25N 41°28' W 070°57'6 7.3
2014-Sep-17 17:33N 41°24' W 071°03'7 7.1
2014-Sep-17 16:31N 41°18' W 071°09'7 7.1
2014-Sep-17 15:33N 41°13' W 071°15'7 6.7
2014-Sep-17 14:33N 41°09' W 071°22'7 6.7
2014-Sep-17 13:33N 41°06' W 071°30'7 6.8
2014-Sep-17 12:33N 41°04' W 071°38'7 6.8
2014-Sep-17 11:33N 41°01' W 071°47'7 6.5
2014-Sep-17 10:33N 40°59' W 071°55'7 6.9
2014-Sep-17 09:33N 40°56' W 072°03'7 6.9
2014-Sep-17 08:33N 40°54' W 072°11'7 7.1
2014-Sep-17 07:33N 40°51' W 072°20'7 7.1
2014-Sep-17 06:33N 40°48' W 072°29'7 7.1
2014-Sep-17 05:33N 40°45' W 072°37'7 7.1
2014-Sep-17 04:33N 40°43' W 072°46'68 3.9
2014-Sep-16 11:09N 40°32' W 074°15'0 0.0
2014-Sep-16 10:21N 40°32' W 074°15'0 0.0
2014-Sep-16 09:23N 40°32' W 074°15'0 0.0
2014-Sep-16 07:23N 40°32' W 074°15'0 0.0
2014-Sep-16 06:29N 40°32' W 074°15'0 0.0
2014-Sep-16 05:16N 40°32' W 074°15'0 0.0
2014-Sep-16 04:31N 40°32' W 074°15'0 0.0
2014-Sep-16 03:12N 40°32' W 074°15'0 0.2
2014-Sep-16 02:13N 40°33' W 074°15'0 0.0
2014-Sep-16 01:32N 40°33' W 074°15'1 0.2
2014-Sep-15 20:30N 40°33' W 074°14'4 1.0
2014-Sep-15 16:33N 40°37' W 074°12'5 2.2
2014-Sep-15 14:18N 40°33' W 074°15'0 0.1
2014-Sep-15 13:31N 40°33' W 074°15'7 6.7
2014-Sep-15 12:32N 40°39' W 074°11'7 6.9
2014-Sep-15 11:32N 40°40' W 074°03'0 0.1
2014-Sep-15 10:33N 40°40' W 074°03'0 0.0
2014-Sep-15 09:33N 40°40' W 074°03'0 0.0
2014-Sep-15 08:32N 40°40' W 074°03'0 0.1
2014-Sep-15 07:33N 40°40' W 074°02'0 0.1
2014-Sep-15 06:33N 40°40' W 074°02'0 0.1
2014-Sep-15 05:33N 40°40' W 074°02'0 0.0
2014-Sep-15 04:33N 40°40' W 074°02'0 0.0
2014-Sep-15 03:33N 40°40' W 074°02'0 0.1
2014-Sep-15 02:32N 40°40' W 074°02'0 0.1
2014-Sep-15 01:33N 40°40' W 074°03'0 0.0
2014-Sep-15 00:33N 40°40' W 074°02'0 0.0
2014-Sep-14 23:28N 40°40' W 074°03'0 0.0
2014-Sep-14 22:30N 40°40' W 074°03'1 1.0
2014-Sep-14 21:33N 40°39' W 074°03'5 2.5
2014-Sep-14 19:29N 40°39' W 074°10'0 0.0
2014-Sep-14 18:24N 40°39' W 074°10'0 0.0
2014-Sep-14 17:26N 40°39' W 074°10'1 1.0
2014-Sep-14 16:30N 40°38' W 074°09'5 4.9
2014-Sep-14 15:28N 40°40' W 074°02'4 1.1
2014-Sep-14 11:28N 40°39' W 074°08'4 4.6
2014-Sep-14 10:33N 40°40' W 074°03'0 0.0
2014-Sep-14 09:31N 40°40' W 074°03'0 0.0
2014-Sep-14 08:33N 40°40' W 074°03'0 0.0
2014-Sep-14 07:33N 40°40' W 074°03'0 0.1
2014-Sep-14 06:33N 40°40' W 074°02'0 0.1
2014-Sep-14 05:33N 40°40' W 074°02'0 0.1
2014-Sep-14 04:33N 40°40' W 074°02'2 2.1
2014-Sep-14 03:33N 40°38' W 074°03'9 9.1
2014-Sep-14 02:32N 40°30' W 073°57'10 9.4
2014-Sep-14 01:27N 40°29' W 073°43'37 9.4
2014-Sep-13 21:33N 40°40' W 072°57'9 9.1
2014-Sep-13 20:33N 40°43' W 072°46'9 9.1
2014-Sep-13 19:33N 40°46' W 072°35'9 9.1
2014-Sep-13 18:33N 40°50' W 072°24'9 9.2
2014-Sep-13 17:33N 40°53' W 072°12'9 9.2
2014-Sep-13 16:33N 40°56' W 072°01'9 9.3
2014-Sep-13 15:33N 40°60' W 071°50'10 9.8
2014-Sep-13 14:33N 41°04' W 071°38'10 9.5
2014-Sep-13 13:33N 41°09' W 071°27'9 8.9
2014-Sep-13 12:33N 41°18' W 071°25'9 9.2
2014-Sep-13 11:33N 41°27' W 071°23'9 8.7
2014-Sep-13 10:33N 41°35' W 071°19'8 8.5
2014-Sep-13 09:33N 41°43' W 071°21'4 3.8
2014-Sep-13 08:33N 41°47' W 071°22'0 0.0
2014-Sep-13 07:33N 41°47' W 071°22'0 0.0
2014-Sep-13 06:33N 41°47' W 071°22'0 0.0
2014-Sep-13 05:33N 41°47' W 071°22'0 0.0
2014-Sep-13 01:20N 41°47' W 071°22'0 0.0
2014-Sep-13 00:33N 41°47' W 071°22'2 1.6
2014-Sep-12 23:33N 41°48' W 071°24'0 0.0
2014-Sep-12 19:33N 41°48' W 071°24'0 0.0
2014-Sep-12 16:18N 41°48' W 071°24'0 0.0
2014-Sep-12 15:33N 41°48' W 071°24'0 0.0
2014-Sep-12 14:33N 41°48' W 071°24'0 0.0
2014-Sep-12 13:33N 41°48' W 071°24'1 1.0
2014-Sep-12 12:28N 41°47' W 071°23'8 8.5
2014-Sep-12 11:33N 41°40' W 071°19'9 8.9
2014-Sep-12 10:33N 41°31' W 071°20'6 6.3
2014-Sep-12 09:33N 41°25' W 071°19'9 9.2
2014-Sep-12 08:33N 41°25' W 071°07'10 9.2
2014-Sep-12 07:29N 41°29' W 070°55'9 9.6
2014-Sep-12 06:33N 41°34' W 070°45'11 9.7
2014-Sep-12 05:28N 41°43' W 070°39'9 8.9
2014-Sep-12 04:27N 41°48' W 070°28'8 8.7
2014-Sep-12 03:33N 41°55' W 070°30'10 9.4
2014-Sep-12 02:27N 42°05' W 070°34'8 9.3
2014-Sep-12 01:33N 42°13' W 070°39'9 9.0
2014-Sep-12 00:33N 42°20' W 070°46'11 1.4
2014-Sep-11 16:31N 42°24' W 071°01'0 0.0
2014-Sep-11 15:33N 42°24' W 071°01'0 0.0
2014-Sep-11 14:33N 42°24' W 071°01'0 0.0
2014-Sep-11 13:30N 42°24' W 071°01'0 0.0
2014-Sep-11 12:10N 42°24' W 071°01'0 0.0
2014-Sep-11 11:33N 42°24' W 071°01'0 0.0
2014-Sep-11 10:33N 42°24' W 071°01'0 0.0
2014-Sep-11 09:33N 42°24' W 071°01'0 0.0
2014-Sep-11 08:33N 42°24' W 071°01'0 0.0
2014-Sep-11 07:32N 42°24' W 071°01'0 0.0
2014-Sep-11 06:33N 42°24' W 071°01'0 0.0
2014-Sep-11 05:32N 42°24' W 071°01'0 0.0
2014-Sep-11 04:33N 42°24' W 071°01'0 0.0
2014-Sep-11 03:33N 42°24' W 071°01'0 0.0
2014-Sep-11 02:33N 42°24' W 071°01'0 0.0
2014-Sep-11 01:32N 42°24' W 071°01'0 0.0
2014-Sep-11 00:33N 42°24' W 071°01'0 0.0
2014-Sep-10 23:33N 42°24' W 071°01'0 0.0
2014-Sep-10 22:32N 42°24' W 071°01'0 0.0
2014-Sep-10 21:30N 42°24' W 071°01'0 0.0
2014-Sep-10 20:10N 42°24' W 071°01'0 0.0
2014-Sep-10 19:33N 42°24' W 071°01'0 0.0
2014-Sep-10 18:33N 42°24' W 071°01'0 0.0
2014-Sep-10 17:33N 42°24' W 071°01'0 0.0
2014-Sep-10 16:31N 42°24' W 071°01'2 2.0
2014-Sep-10 15:30N 42°23' W 071°03'0 0.1
2014-Sep-10 13:33N 42°23' W 071°03'0 0.0
2014-Sep-10 12:32N 42°23' W 071°03'0 0.0
2014-Sep-10 08:33N 42°23' W 071°03'0 0.0
2014-Sep-10 07:33N 42°23' W 071°03'0 0.0
2014-Sep-10 06:33N 42°23' W 071°03'0 0.0
2014-Sep-10 05:31N 42°23' W 071°03'1 0.5
2014-Sep-10 03:24N 42°22' W 071°03'5 5.0
2014-Sep-10 02:30N 42°20' W 070°58'39 7.3
2014-Sep-09 21:08N 41°48' W 070°28'6 8.0
2014-Sep-09 20:25N 41°45' W 070°35'14 7.2
2014-Sep-09 18:31N 41°34' W 070°45'8 7.9
2014-Sep-09 17:33N 41°29' W 070°53'7 6.9
2014-Sep-09 16:32N 41°26' W 071°02'7 7.1
2014-Sep-09 15:33N 41°25' W 071°11'8 7.7
2014-Sep-09 14:33N 41°24' W 071°21'7 7.4
2014-Sep-09 13:33N 41°32' W 071°20'8 8.3
2014-Sep-09 12:33N 41°40' W 071°19'7 7.4
2014-Sep-09 11:33N 41°47' W 071°22'0 0.1
2014-Sep-09 10:33N 41°47' W 071°22'0 0.0
2014-Sep-09 09:33N 41°47' W 071°22'0 0.0
2014-Sep-09 08:33N 41°47' W 071°22'0 0.0
2014-Sep-09 07:33N 41°47' W 071°22'0 0.0
2014-Sep-09 06:33N 41°47' W 071°22'0 0.0
2014-Sep-09 05:33N 41°47' W 071°22'0 0.0
2014-Sep-09 04:33N 41°47' W 071°22'0 0.0
2014-Sep-09 03:33N 41°47' W 071°22'0 0.0
2014-Sep-09 02:33N 41°47' W 071°22'0 0.0
2014-Sep-09 01:33N 41°47' W 071°22'0 0.0
2014-Sep-09 00:33N 41°47' W 071°22'2 2.1
2014-Sep-08 23:33N 41°45' W 071°22'7 7.4
2014-Sep-08 22:33N 41°38' W 071°18'8 8.3
2014-Sep-08 21:32N 41°30' W 071°21'8 7.9
2014-Sep-08 20:33N 41°23' W 071°25'7 6.5
2014-Sep-08 19:33N 41°18' W 071°31'8 7.8
2014-Sep-08 18:33N 41°17' W 071°41'8 8.2
2014-Sep-08 17:33N 41°15' W 071°52'9 8.7
2014-Sep-08 16:33N 41°14' W 072°03'8 8.2
2014-Sep-08 15:33N 41°12' W 072°14'7 7.2
2014-Sep-08 14:33N 41°11' W 072°23'6 6.3
2014-Sep-08 13:33N 41°10' W 072°31'6 6.3
2014-Sep-08 12:33N 41°11' W 072°39'6 6.3
2014-Sep-08 11:33N 41°11' W 072°48'  

Dump ship's entire track history